Time;durP1;ratioP1;P1;durP2;ratioP2;P2;SDS_P1;SDS_P2;PMS_P1;PMS_P2;Temp;Humidity;BMP_temperature;BMP_pressure;BME280_temperature;BME280_humidity;BME280_pressure;Samples;Min_cycle;Max_cycle;Signal;HPM_P1;HPM_P2
2021/09/21 17:18:37;;;;;;;8.50;7.63;;;;;;;10.83;97.14;94100.63;2592520;22;20038;-78
2021/09/21 17:19:56;;;;;;;8.70;7.65;;;;;;;10.71;98.59;94101.09;2589402;22;20016;-78
2021/09/21 17:20:58;;;;;;;8.45;7.63;;;;;;;10.80;97.82;94103.34;2588363;22;20008;-80
2021/09/21 17:21:58;;;;;;;8.57;7.20;;;;;;;10.83;96.83;94111.31;2577797;22;20004;-79
2021/09/21 17:22:59;;;;;;;8.73;7.82;;;;;;;10.80;96.14;94114.03;2577335;22;20439;-80
2021/09/21 17:24:02;;;;;;;8.48;7.57;;;;;;;10.63;98.83;94109.56;2589900;22;20325;-79
2021/09/21 17:25:04;;;;;;;13.23;7.75;;;;;;;10.72;97.00;94107.97;2590697;22;20008;-78
2021/09/21 17:26:05;;;;;;;10.25;8.02;;;;;;;10.59;97.77;94112.25;2579297;22;20008;-78
2021/09/21 17:27:06;;;;;;;10.63;7.88;;;;;;;10.38;99.39;94109.69;2566880;23;20448;-79
2021/09/21 17:28:07;;;;;;;8.50;7.68;;;;;;;10.33;100.00;94119.63;2579359;22;20423;-78
2021/09/21 17:29:12;;;;;;;8.80;7.75;;;;;;;10.17;100.00;94119.28;2592874;22;20027;-78
2021/09/21 17:30:13;;;;;;;9.50;7.63;;;;;;;10.21;100.00;94124.63;2591661;22;20007;-78
2021/09/21 17:31:14;;;;;;;9.23;7.93;;;;;;;10.15;100.00;94123.50;2579929;22;20007;-78
2021/09/21 17:32:15;;;;;;;10.15;8.00;;;;;;;10.25;100.00;94123.47;2579247;23;20008;-76
2021/09/21 17:33:17;;;;;;;8.35;7.40;;;;;;;10.12;100.00;94125.03;2579487;23;20007;-77
2021/09/21 17:34:17;;;;;;;9.40;8.18;;;;;;;10.01;100.00;94124.31;2580083;22;20058;-78
2021/09/21 17:35:19;;;;;;;8.60;7.78;;;;;;;10.04;100.00;94118.94;2591604;22;20452;-78
2021/09/21 17:36:20;;;;;;;10.80;8.02;;;;;;;9.90;100.00;94126.25;2592421;22;20406;-77
2021/09/21 17:37:21;;;;;;;9.57;7.93;;;;;;;9.80;100.00;94125.13;2579766;23;20000;-79
2021/09/21 17:38:22;;;;;;;12.02;7.82;;;;;;;9.87;100.00;94124.34;2567543;23;20004;-80
2021/09/21 17:39:23;;;;;;;10.00;8.45;;;;;;;9.79;100.00;94128.97;2592233;22;19999;-81
2021/09/21 17:40:26;;;;;;;9.98;8.35;;;;;;;9.72;100.00;94124.38;2592503;22;19999;-80
2021/09/21 17:41:27;;;;;;;8.30;7.50;;;;;;;9.80;100.00;94123.22;2578999;22;20010;-77
2021/09/21 17:42:32;;;;;;;8.55;7.65;;;;;;;9.65;100.00;94126.31;2591434;22;20002;-78
2021/09/21 17:43:33;;;;;;;8.70;7.82;;;;;;;9.70;100.00;94128.56;2592415;22;20063;-79
2021/09/21 17:44:34;;;;;;;8.98;8.07;;;;;;;9.68;100.00;94126.28;2580280;23;20003;-78
2021/09/21 17:45:36;;;;;;;9.68;8.30;;;;;;;9.52;100.00;94129.38;2579321;22;20039;-80
2021/09/21 17:46:37;;;;;;;11.65;8.25;;;;;;;9.51;100.00;94125.19;2592233;22;20011;-79
2021/09/21 17:47:38;;;;;;;10.13;9.13;;;;;;;9.36;100.00;94129.03;2592998;22;20418;-77
2021/09/21 17:48:39;;;;;;;10.75;8.13;;;;;;;9.39;100.00;94136.25;2593639;22;19999;-79
2021/09/21 17:49:40;;;;;;;10.13;9.10;;;;;;;9.38;100.00;94126.72;2593109;22;20000;-78
2021/09/21 17:50:42;;;;;;;11.32;9.25;;;;;;;9.43;100.00;94133.56;2593243;22;20007;-77
2021/09/21 17:51:43;;;;;;;9.85;8.85;;;;;;;9.45;100.00;94134.72;2592355;22;20890;-76
2021/09/21 17:52:46;;;;;;;11.63;9.82;;;;;;;9.47;100.00;94139.66;2592009;22;20325;-79
2021/09/21 17:53:47;;;;;;;12.60;10.27;;;;;;;9.36;100.00;94136.28;2592316;22;20083;-81
2021/09/21 17:54:48;;;;;;;13.05;11.70;;;;;;;9.34;100.00;94141.97;2591245;22;20014;-77
2021/09/21 17:55:49;;;;;;;13.38;11.73;;;;;;;9.30;100.00;94149.22;2592497;22;19996;-78
2021/09/21 17:56:50;;;;;;;12.95;11.65;;;;;;;9.20;100.00;94142.72;2579668;22;20008;-80
2021/09/21 17:57:51;;;;;;;12.05;10.73;;;;;;;9.25;100.00;94146.94;2592254;22;20469;-79
2021/09/21 17:58:52;;;;;;;12.43;10.25;;;;;;;9.25;100.00;94154.94;2579651;23;20004;-79
2021/09/21 17:59:53;;;;;;;16.70;13.27;;;;;;;9.24;100.00;94142.75;2567173;22;20343;-77
2021/09/21 18:00:54;;;;;;;15.57;12.63;;;;;;;9.16;100.00;94147.31;2579189;22;20008;-80
2021/09/21 18:01:55;;;;;;;17.20;13.80;;;;;;;9.13;100.00;94150.75;2579396;22;20078;-78
2021/09/21 18:02:56;;;;;;;14.15;12.25;;;;;;;9.14;100.00;94148.84;2579590;23;20019;-78
2021/09/21 18:03:58;;;;;;;19.73;13.73;;;;;;;9.15;100.00;94163.69;2592032;22;20037;-79
2021/09/21 18:04:58;;;;;;;15.68;13.70;;;;;;;9.13;100.00;94150.75;2591838;22;20057;-78
2021/09/21 18:06:02;;;;;;;16.08;13.48;;;;;;;9.12;100.00;94157.22;2579243;22;20401;-78
2021/09/21 18:07:03;;;;;;;16.13;13.65;;;;;;;9.16;100.00;94162.56;2566571;23;20005;-76
2021/09/21 18:08:06;;;;;;;17.42;13.68;;;;;;;9.23;100.00;94167.91;2567256;23;20011;-76
2021/09/21 18:09:10;;;;;;;19.00;14.48;;;;;;;9.18;100.00;94160.28;2579888;22;20435;-78
2021/09/21 18:10:11;;;;;;;18.45;13.05;;;;;;;9.12;100.00;94153.78;2592128;22;20092;-80
2021/09/21 18:11:13;;;;;;;15.48;13.57;;;;;;;8.99;100.00;94162.16;2594101;22;20043;-79
2021/09/21 18:12:18;;;;;;;15.35;13.68;;;;;;;8.94;100.00;94159.84;2578790;23;20038;-77
2021/09/21 18:13:19;;;;;;;17.30;14.32;;;;;;;9.04;100.00;94153.00;2579600;22;20552;-80
2021/09/21 18:14:20;;;;;;;15.55;13.35;;;;;;;9.05;100.00;94154.56;2593101;22;20085;-77
2021/09/21 18:15:43;;;;;;;17.50;14.18;;;;;;;8.95;100.00;94155.28;2592745;22;20030;-79
2021/09/21 18:16:58;;;;;;;15.18;12.98;;;;;;;8.93;100.00;94158.34;2568216;22;20030;-77
2021/09/21 18:18:21;;;;;;;15.60;13.25;;;;;;;8.82;100.00;94154.88;2569531;23;20009;-78
2021/09/21 18:19:24;;;;;;;13.52;12.13;;;;;;;8.71;100.00;94151.44;2575744;22;20019;-80
2021/09/21 18:21:10;;;;;;;14.57;13.13;;;;;;;8.62;100.00;94159.03;2591503;22;20003;-79
2021/09/21 18:22:52;;;;;;;13.82;12.43;;;;;;;8.88;100.00;94168.63;2593411;22;20716;-80
2021/09/21 18:23:53;;;;;;;12.70;11.32;;;;;;;8.63;100.00;94160.56;2541771;22;20012;-79
2021/09/21 18:24:54;;;;;;;13.90;11.20;;;;;;;8.62;100.00;94169.72;2579403;22;20004;-77
2021/09/21 18:25:55;;;;;;;12.30;10.50;;;;;;;8.63;100.00;94168.56;2578892;22;20004;-77
2021/09/21 18:26:56;;;;;;;11.95;10.55;;;;;;;8.54;100.00;94164.34;2592192;22;20008;-78
2021/09/21 18:27:57;;;;;;;12.43;11.13;;;;;;;8.58;100.00;94162.44;2592360;22;20008;-80
2021/09/21 18:28:58;;;;;;;12.75;11.45;;;;;;;8.61;100.00;94168.19;2591567;22;20010;-77
2021/09/21 18:29:59;;;;;;;12.32;11.05;;;;;;;8.54;100.00;94171.56;2566059;23;20071;-79
2021/09/21 18:31:00;;;;;;;13.70;10.60;;;;;;;8.59;100.00;94168.53;2579453;23;20070;-77
2021/09/21 18:32:01;;;;;;;11.68;10.48;;;;;;;8.57;100.00;94178.84;2592355;22;20033;-78
2021/09/21 18:33:03;;;;;;;11.32;10.15;;;;;;;8.58;100.00;94180.34;2592448;22;20086;-79
2021/09/21 18:34:04;;;;;;;11.70;10.15;;;;;;;8.31;100.00;94180.59;2592410;22;20075;-78
2021/09/21 18:35:05;;;;;;;11.43;10.23;;;;;;;8.20;100.00;94187.00;2592020;22;20004;-79
2021/09/21 18:36:07;;;;;;;10.68;9.20;;;;;;;8.16;100.00;94183.56;2566561;23;20403;-80
2021/09/21 18:37:08;;;;;;;11.68;10.48;;;;;;;8.25;100.00;94184.00;2567429;23;20520;-78
2021/09/21 18:38:20;;;;;;;11.07;9.98;;;;;;;8.18;100.00;94187.41;2579591;22;20038;-78
2021/09/21 18:39:21;;;;;;;17.17;9.90;;;;;;;8.10;100.00;94188.50;2581416;22;20031;-80
2021/09/21 18:40:22;;;;;;;10.70;9.60;;;;;;;8.08;100.00;94178.22;2592120;22;20611;-76
2021/09/21 18:41:23;;;;;;;12.48;9.40;;;;;;;8.11;100.00;94181.28;2579000;23;20479;-79
2021/09/21 18:42:24;;;;;;;10.38;9.32;;;;;;;8.04;100.00;94180.09;2566644;23;20004;-81
2021/09/21 18:43:26;;;;;;;10.02;9.07;;;;;;;8.07;100.00;94182.00;2579669;22;20058;-76
2021/09/21 18:44:27;;;;;;;9.57;8.13;;;;;;;8.05;100.00;94178.22;2592411;22;20004;-78
2021/09/21 18:45:28;;;;;;;9.90;8.52;;;;;;;8.13;100.00;94182.44;2592290;22;20010;-76
2021/09/21 18:46:30;;;;;;;9.07;8.27;;;;;;;7.99;100.00;94185.78;2592418;22;20000;-77
2021/09/21 18:47:31;;;;;;;9.80;8.32;;;;;;;7.93;100.00;94179.28;2592575;22;20030;-78
2021/09/21 18:48:32;;;;;;;13.77;8.52;;;;;;;7.95;100.00;94186.91;2579474;23;20458;-78
2021/09/21 18:49:33;;;;;;;10.32;8.90;;;;;;;7.84;100.00;94178.84;2579213;22;19996;-77
2021/09/21 18:50:35;;;;;;;12.00;9.15;;;;;;;7.89;100.00;94183.81;2592555;22;20081;-79
2021/09/21 18:51:36;;;;;;;9.63;8.63;;;;;;;7.89;100.00;94180.41;2592396;22;20113;-77
2021/09/21 18:52:41;;;;;;;10.93;9.40;;;;;;;7.87;100.00;94180.00;2593984;22;20003;-79
2021/09/21 18:53:43;;;;;;;9.93;7.65;;;;;;;7.96;100.00;94181.19;2592790;22;20041;-79
2021/09/21 18:54:44;;;;;;;9.63;8.63;;;;;;;8.11;100.00;94186.59;2567088;23;20060;-82
2021/09/21 18:55:46;;;;;;;11.88;8.43;;;;;;;8.16;100.00;94187.00;2567355;23;20009;-78
2021/09/21 18:56:47;;;;;;;9.77;8.30;;;;;;;8.14;100.00;94191.94;2592867;22;20138;-78
2021/09/21 18:57:48;;;;;;;10.48;8.32;;;;;;;8.09;100.00;94192.31;2592293;22;20004;-78
2021/09/21 18:58:49;;;;;;;9.60;8.70;;;;;;;8.01;100.00;94190.75;2592914;22;20007;-79
2021/09/21 18:59:50;;;;;;;9.40;8.50;;;;;;;8.03;100.00;94193.78;2593611;22;20003;-77
2021/09/21 19:00:51;;;;;;;10.43;8.52;;;;;;;8.05;100.00;94191.53;2593393;22;20011;-76
2021/09/21 19:01:52;;;;;;;10.68;9.10;;;;;;;8.02;100.00;94190.34;2593090;22;20004;-77
2021/09/21 19:02:53;;;;;;;11.10;8.63;;;;;;;7.99;100.00;94187.66;2568151;23;20302;-78
2021/09/21 19:03:54;;;;;;;9.55;8.63;;;;;;;8.03;100.00;94191.91;2568204;23;20011;-76
2021/09/21 19:04:56;;;;;;;9.85;8.85;;;;;;;8.25;100.00;94192.78;2568471;22;20008;-74
2021/09/21 19:05:57;;;;;;;10.93;8.55;;;;;;;8.14;100.00;94196.50;2592855;22;20049;-79
2021/09/21 19:06:58;;;;;;;12.02;8.52;;;;;;;8.08;100.00;94196.88;2580288;23;20004;-77
2021/09/21 19:07:59;;;;;;;9.45;8.48;;;;;;;8.02;100.00;94201.00;2567915;22;20078;-77
2021/09/21 19:09:02;;;;;;;10.02;9.00;;;;;;;7.97;100.00;94200.59;2593099;22;20370;-75
2021/09/21 19:10:05;;;;;;;11.00;8.57;;;;;;;7.93;100.00;94202.47;2591595;22;20004;-77
2021/09/21 19:11:06;;;;;;;10.13;9.00;;;;;;;7.89;100.00;94201.69;2580724;22;20016;-76
2021/09/21 19:12:07;;;;;;;11.23;8.65;;;;;;;7.97;100.00;94204.03;2592767;22;20058;-77
2021/09/21 19:13:15;;;;;;;10.30;8.60;;;;;;;7.99;100.00;94209.75;2593013;22;20026;-77
2021/09/21 19:14:16;;;;;;;11.98;9.02;;;;;;;8.05;100.00;94207.50;2581791;22;20008;-77
2021/09/21 19:15:17;;;;;;;11.82;8.63;;;;;;;7.96;100.00;94207.81;2592198;22;20014;-76
2021/09/21 19:16:18;;;;;;;11.88;8.82;;;;;;;8.14;100.00;94209.81;2593055;22;19999;-73
2021/09/21 19:17:19;;;;;;;12.85;9.25;;;;;;;8.16;100.00;94205.63;2580273;23;20313;-78
2021/09/21 19:18:20;;;;;;;14.23;9.68;;;;;;;8.19;100.00;94210.22;2567494;22;20016;-75
2021/09/21 19:19:21;;;;;;;10.38;9.27;;;;;;;8.24;100.00;94211.78;2592813;22;20011;-75
2021/09/21 19:20:24;;;;;;;11.45;9.20;;;;;;;8.26;100.00;94212.16;2592391;22;20418;-74
2021/09/21 19:21:25;;;;;;;12.77;9.73;;;;;;;8.18;100.00;94215.94;2580488;22;20121;-76
2021/09/21 19:22:27;;;;;;;10.35;9.25;;;;;;;8.23;100.00;94216.34;2592961;22;20359;-77
2021/09/21 19:23:28;;;;;;;12.15;9.60;;;;;;;8.16;100.00;94212.88;2579882;23;20075;-76
2021/09/21 19:24:29;;;;;;;12.18;9.55;;;;;;;8.22;100.00;94209.50;2555543;23;20009;-77
2021/09/21 19:25:30;;;;;;;13.75;10.10;;;;;;;8.12;100.00;94209.41;2567447;22;20369;-77
2021/09/21 19:26:31;;;;;;;12.98;9.80;;;;;;;8.28;100.00;94204.56;2580199;23;20064;-78
2021/09/21 19:27:32;;;;;;;11.25;9.02;;;;;;;8.22;100.00;94214.06;2567497;23;20074;-76
2021/09/21 19:28:33;;;;;;;10.30;9.32;;;;;;;8.37;100.00;94217.56;2556264;23;20027;-80
2021/09/21 19:29:34;;;;;;;10.60;9.40;;;;;;;8.51;100.00;94213.06;2567058;23;20023;-81
2021/09/21 19:30:35;;;;;;;12.43;10.38;;;;;;;8.38;100.00;94211.09;2579289;22;20274;-78
2021/09/21 19:31:36;;;;;;;11.80;9.45;;;;;;;8.51;100.00;94205.06;2592832;22;20075;-77
2021/09/21 19:32:38;;;;;;;10.90;9.80;;;;;;;8.46;100.00;94204.66;2592751;22;20001;-78
2021/09/21 19:33:39;;;;;;;12.75;10.32;;;;;;;8.42;100.00;94212.63;2593622;22;20077;-79
2021/09/21 19:34:40;;;;;;;12.20;9.52;;;;;;;8.47;100.00;94214.97;2593136;22;20008;-79
2021/09/21 19:35:41;;;;;;;10.80;9.10;;;;;;;8.28;100.00;94215.97;2579330;22;20036;-78
2021/09/21 19:36:44;;;;;;;10.05;9.05;;;;;;;8.29;100.00;94216.72;2580484;22;20729;-79
2021/09/21 19:37:48;;;;;;;11.07;9.90;;;;;;;8.21;100.00;94202.63;2580268;22;20008;-81
2021/09/21 19:38:52;;;;;;;10.45;9.30;;;;;;;8.17;100.00;94201.84;2581526;22;20019;-79
2021/09/21 19:39:53;;;;;;;10.60;9.52;;;;;;;8.17;100.00;94206.44;2592895;22;20643;-77
2021/09/21 19:40:54;;;;;;;13.00;10.85;;;;;;;8.07;100.00;94207.88;2580296;22;20011;-78
2021/09/21 19:41:55;;;;;;;13.02;9.82;;;;;;;8.00;100.00;94216.59;2566602;23;20344;-78
2021/09/21 19:42:58;;;;;;;14.45;9.93;;;;;;;7.95;100.00;94205.53;2555266;23;20012;-80
2021/09/21 19:43:59;;;;;;;12.65;10.80;;;;;;;8.02;100.00;94208.22;2568697;22;20466;-81
2021/09/21 19:45:00;;;;;;;13.82;11.10;;;;;;;7.94;100.00;94215.41;2580600;22;20039;-80
2021/09/21 19:46:01;;;;;;;12.23;10.35;;;;;;;7.81;100.00;94209.66;2580077;22;20071;-78
2021/09/21 19:47:02;;;;;;;10.43;9.38;;;;;;;7.89;100.00;94213.09;2580264;22;20394;-78
2021/09/21 19:48:06;;;;;;;11.63;9.88;;;;;;;7.84;100.00;94216.13;2592648;22;20003;-80
2021/09/21 19:49:09;;;;;;;11.93;10.35;;;;;;;7.93;100.00;94205.13;2580702;23;20015;-80
2021/09/21 19:50:11;;;;;;;11.73;10.35;;;;;;;7.81;100.00;94209.66;2580449;22;20136;-79
2021/09/21 19:51:12;;;;;;;10.88;8.73;;;;;;;7.87;100.00;94209.28;2580241;22;20019;-77
2021/09/21 19:52:13;;;;;;;10.98;9.88;;;;;;;7.82;100.00;94211.16;2592774;22;19999;-77
2021/09/21 19:53:14;;;;;;;13.77;10.35;;;;;;;7.80;100.00;94218.75;2593583;22;20007;-80
2021/09/21 19:54:15;;;;;;;10.70;9.40;;;;;;;7.82;100.00;94216.50;2591712;22;20354;-81
2021/09/21 19:55:16;;;;;;;10.40;9.40;;;;;;;7.69;100.00;94217.16;2579971;22;20450;-78
2021/09/21 19:56:17;;;;;;;12.38;9.60;;;;;;;7.76;100.00;94209.97;2580151;22;20384;-79
2021/09/21 19:57:18;;;;;;;12.05;10.20;;;;;;;7.82;100.00;94211.16;2567567;23;20004;-79
2021/09/21 19:58:19;;;;;;;10.27;9.23;;;;;;;7.71;100.00;94206.91;2580662;22;20071;-80
2021/09/21 19:59:20;;;;;;;11.02;9.93;;;;;;;7.57;100.00;94215.53;2580617;23;20008;-81
2021/09/21 20:00:22;;;;;;;13.07;9.60;;;;;;;7.63;100.00;94202.66;2554851;23;20001;-80
2021/09/21 20:01:23;;;;;;;11.52;9.48;;;;;;;7.67;100.00;94201.53;2580783;22;20015;-82
2021/09/21 20:02:26;;;;;;;12.38;9.10;;;;;;;7.64;100.00;94204.19;2592619;22;20011;-79
2021/09/21 20:03:27;;;;;;;12.93;10.43;;;;;;;7.55;100.00;94204.50;2580971;22;20079;-79
2021/09/21 20:04:30;;;;;;;12.52;9.70;;;;;;;7.60;100.00;94208.75;2580533;22;20038;-79
2021/09/21 20:05:31;;;;;;;11.02;9.70;;;;;;;7.61;100.00;94202.28;2579939;22;20439;-78
2021/09/21 20:06:34;;;;;;;16.15;10.32;;;;;;;7.47;100.00;94208.25;2567544;23;20084;-82
2021/09/21 20:07:35;;;;;;;11.18;9.98;;;;;;;7.28;100.00;94211.88;2568739;22;20336;-79
2021/09/21 20:08:36;;;;;;;11.23;9.95;;;;;;;7.27;100.00;94207.72;2580747;22;20597;-80
2021/09/21 20:09:38;;;;;;;12.15;10.57;;;;;;;7.26;100.00;94201.63;2593522;22;20003;-81
2021/09/21 20:10:39;;;;;;;13.35;9.27;;;;;;;7.16;100.00;94207.63;2592959;22;20003;-79
2021/09/21 20:11:39;;;;;;;12.60;10.13;;;;;;;7.16;100.00;94201.56;2592126;22;20021;-80
2021/09/21 20:12:41;;;;;;;14.07;10.15;;;;;;;7.10;100.00;94203.75;2593084;22;20006;-80
2021/09/21 20:13:42;;;;;;;11.77;9.82;;;;;;;7.19;100.00;94208.78;2593312;22;20054;-78
2021/09/21 20:14:43;;;;;;;13.77;10.32;;;;;;;7.23;100.00;94207.66;2592967;22;20050;-79
2021/09/21 20:15:44;;;;;;;11.88;10.68;;;;;;;7.16;100.00;94212.94;2592322;22;20034;-80
2021/09/21 20:16:45;;;;;;;13.82;10.40;;;;;;;7.18;100.00;94208.00;2592925;22;20015;-79
2021/09/21 20:17:48;;;;;;;11.55;10.35;;;;;;;7.12;100.00;94214.03;2579847;23;20075;-78
2021/09/21 20:18:49;;;;;;;15.77;10.68;;;;;;;6.98;100.00;94214.66;2567745;23;20646;-79
2021/09/21 20:19:50;;;;;;;11.50;10.30;;;;;;;7.06;100.00;94208.28;2568308;22;20004;-79
2021/09/21 20:20:54;;;;;;;10.88;9.82;;;;;;;6.96;100.00;94212.38;2579896;22;20004;-79
2021/09/21 20:21:55;;;;;;;10.25;8.90;;;;;;;6.99;100.00;94213.53;2579740;23;20099;-81
2021/09/21 20:22:56;;;;;;;11.65;9.32;;;;;;;6.94;100.00;94209.31;2580665;22;20050;-80
2021/09/21 20:23:57;;;;;;;10.82;9.73;;;;;;;6.99;100.00;94216.97;2579888;23;20008;-81
2021/09/21 20:24:58;;;;;;;10.73;9.35;;;;;;;6.97;100.00;94215.78;2567855;22;20007;-79
2021/09/21 20:25:59;;;;;;;12.38;9.70;;;;;;;6.86;100.00;94209.63;2580251;22;20028;-79
2021/09/21 20:27:04;;;;;;;10.95;9.35;;;;;;;6.80;100.00;94209.94;2592879;22;20019;-80
2021/09/21 20:28:05;;;;;;;11.00;9.60;;;;;;;6.82;100.00;94209.56;2580344;23;20004;-81
2021/09/21 20:29:06;;;;;;;19.25;10.10;;;;;;;6.67;100.00;94203.34;2580622;22;20718;-80
2021/09/21 20:30:12;;;;;;;13.35;10.35;;;;;;;6.64;100.00;94200.66;2591537;22;20007;-78
2021/09/21 20:31:13;;;;;;;11.30;10.10;;;;;;;6.58;100.00;94210.81;2581480;22;20611;-81
2021/09/21 20:32:14;;;;;;;13.23;9.90;;;;;;;6.59;100.00;94203.66;2580496;23;20032;-80
2021/09/21 20:33:15;;;;;;;11.45;9.98;;;;;;;6.60;100.00;94205.16;2580362;23;20376;-79
2021/09/21 20:34:29;;;;;;;15.27;10.63;;;;;;;6.67;100.00;94208.66;2555835;23;20040;-80
2021/09/21 20:36:30;;;;;;;10.82;9.73;;;;;;;6.73;100.00;94209.09;2567628;23;20004;-79
2021/09/21 20:38:32;;;;;;;11.07;9.60;;;;;;;6.57;100.00;94215.38;2580417;23;20656;-79
2021/09/21 20:39:33;;;;;;;11.50;9.95;;;;;;;6.52;100.00;94206.97;2567600;23;20003;-80
2021/09/21 20:40:34;;;;;;;11.38;9.30;;;;;;;6.53;100.00;94213.81;2567947;23;20367;-79
2021/09/21 20:41:35;;;;;;;10.57;9.57;;;;;;;6.56;100.00;94211.19;2579680;22;20011;-79
2021/09/21 20:42:37;;;;;;;11.25;9.95;;;;;;;6.34;100.00;94217.38;2592469;22;19999;-78
2021/09/21 20:43:39;;;;;;;12.18;9.77;;;;;;;6.31;100.00;94215.44;2593406;22;20050;-78
2021/09/21 20:44:40;;;;;;;12.65;9.63;;;;;;;6.34;100.00;94214.72;2593777;22;19999;-80
2021/09/21 20:45:42;;;;;;;11.93;10.15;;;;;;;6.23;100.00;94214.63;2592402;22;20087;-78
2021/09/21 20:46:43;;;;;;;13.13;9.65;;;;;;;6.29;100.00;94215.06;2580350;22;20390;-80
2021/09/21 20:47:44;;;;;;;12.00;9.55;;;;;;;6.18;100.00;94216.81;2579617;23;20034;-80
2021/09/21 20:48:45;;;;;;;11.43;10.23;;;;;;;6.29;100.00;94220.38;2580422;22;20450;-78
2021/09/21 20:49:46;;;;;;;11.45;10.23;;;;;;;6.31;100.00;94226.81;2567544;23;20009;-79
2021/09/21 20:50:47;;;;;;;11.05;9.57;;;;;;;6.33;100.00;94223.06;2579438;22;20406;-78
2021/09/21 20:51:48;;;;;;;11.23;9.50;;;;;;;6.31;100.00;94226.81;2580121;23;20008;-81
2021/09/21 20:52:50;;;;;;;9.73;8.82;;;;;;;6.23;100.00;94227.09;2567620;23;20630;-82
2021/09/21 20:53:51;;;;;;;14.65;10.15;;;;;;;6.22;100.00;94228.22;2567818;22;20406;-80
2021/09/21 20:54:52;;;;;;;11.15;10.02;;;;;;;6.26;100.00;94229.03;2579325;23;20118;-79
2021/09/21 20:55:53;;;;;;;10.93;9.32;;;;;;;6.40;100.00;94223.13;2579570;23;20034;-80
2021/09/21 20:56:54;;;;;;;10.98;9.82;;;;;;;6.26;100.00;94229.03;2554761;23;20012;-80
2021/09/21 20:57:55;;;;;;;12.82;9.82;;;;;;;6.27;100.00;94219.94;2580035;22;20054;-81
2021/09/21 20:58:56;;;;;;;12.35;10.02;;;;;;;6.23;100.00;94227.88;2593806;22;20007;-79
2021/09/21 20:59:57;;;;;;;11.57;9.73;;;;;;;6.16;100.00;94225.13;2592206;22;20355;-82
2021/09/21 21:00:58;;;;;;;11.43;9.27;;;;;;;6.31;100.00;94231.38;2592271;22;20003;-81
2021/09/21 21:01:59;;;;;;;15.05;9.52;;;;;;;6.16;100.00;94227.03;2579748;22;20039;-81
2021/09/21 21:03:00;;;;;;;11.85;9.02;;;;;;;6.17;100.00;94225.91;2566980;23;20008;-79
2021/09/21 21:04:01;;;;;;;11.77;9.40;;;;;;;6.10;100.00;94221.25;2555407;23;20205;-81
2021/09/21 21:05:03;;;;;;;13.75;10.23;;;;;;;6.13;100.00;94222.44;2554361;23;20055;-80
2021/09/21 21:06:05;;;;;;;11.70;10.25;;;;;;;6.06;100.00;94231.06;2565124;22;20691;-82
2021/09/21 21:07:05;;;;;;;12.05;9.85;;;;;;;6.08;100.00;94230.72;2579714;22;20135;-80
2021/09/21 21:08:07;;;;;;;11.27;9.60;;;;;;;6.22;100.00;94228.22;2592426;22;20014;-81
2021/09/21 21:09:08;;;;;;;9.95;8.88;;;;;;;6.22;100.00;94234.31;2579102;23;20061;-78
2021/09/21 21:10:10;;;;;;;10.07;9.07;;;;;;;6.10;100.00;94231.09;2555182;23;20008;-81
2021/09/21 21:11:11;;;;;;;10.32;8.82;;;;;;;6.00;100.00;94233.25;2579679;22;20707;-80
2021/09/21 21:12:12;;;;;;;13.98;8.93;;;;;;;5.99;100.00;94231.72;2579111;23;20038;-78
2021/09/21 21:13:12;;;;;;;12.00;9.20;;;;;;;6.06;100.00;94231.06;2580131;22;20427;-83
2021/09/21 21:14:13;;;;;;;12.75;10.10;;;;;;;6.15;100.00;94233.47;2593316;22;20696;-79
2021/09/21 21:15:14;;;;;;;10.60;9.00;;;;;;;5.92;100.00;94230.84;2592511;22;20007;-78
2021/09/21 21:16:16;;;;;;;11.48;9.82;;;;;;;5.97;100.00;94227.91;2591903;22;20053;-80
2021/09/21 21:17:17;;;;;;;13.55;9.82;;;;;;;5.93;100.00;94227.09;2579610;23;20014;-79
2021/09/21 21:18:17;;;;;;;14.43;9.50;;;;;;;5.85;100.00;94228.09;2566500;22;20008;-76
2021/09/21 21:19:18;;;;;;;15.50;10.13;;;;;;;5.84;100.00;94224.69;2567604;23;20004;-75
2021/09/21 21:20:19;;;;;;;12.02;9.15;;;;;;;5.87;100.00;94223.19;2567216;22;20095;-78
2021/09/21 21:21:21;;;;;;;10.98;9.18;;;;;;;6.03;100.00;94221.94;2579817;22;20034;-81
2021/09/21 21:22:22;;;;;;;13.52;9.88;;;;;;;5.79;100.00;94224.97;2579441;22;20082;-82
2021/09/21 21:23:22;;;;;;;12.95;9.35;;;;;;;5.78;100.00;94226.09;2592556;22;20011;-79
2021/09/21 21:24:23;;;;;;;10.18;8.90;;;;;;;5.95;100.00;94225.59;2578827;23;20004;-77
2021/09/21 21:25:24;;;;;;;12.90;8.95;;;;;;;6.08;100.00;94228.06;2580628;22;20190;-78
2021/09/21 21:26:25;;;;;;;10.40;9.40;;;;;;;5.93;100.00;94230.53;2579168;23;20012;-79
2021/09/21 21:27:26;;;;;;;11.70;9.52;;;;;;;5.92;100.00;94225.56;2579581;22;20497;-80
2021/09/21 21:28:27;;;;;;;10.65;9.25;;;;;;;5.80;100.00;94226.53;2593376;22;20007;-78
2021/09/21 21:29:30;;;;;;;9.88;8.55;;;;;;;5.76;100.00;94231.00;2592712;22;20000;-76
2021/09/21 21:30:32;;;;;;;13.55;9.48;;;;;;;5.83;100.00;94233.75;2581176;23;20401;-78
2021/09/21 21:31:33;;;;;;;10.75;9.65;;;;;;;5.87;100.00;94229.25;2581890;22;20007;-76
2021/09/21 21:32:33;;;;;;;11.55;9.25;;;;;;;5.82;100.00;94232.22;2594935;22;20414;-75
2021/09/21 21:33:34;;;;;;;10.88;9.45;;;;;;;5.84;100.00;94231.84;2581608;23;20434;-78
2021/09/21 21:34:35;;;;;;;10.88;9.25;;;;;;;5.79;100.00;94223.09;2568768;23;20004;-80
2021/09/21 21:35:38;;;;;;;12.05;10.00;;;;;;;5.77;100.00;94227.22;2594336;22;20438;-76
2021/09/21 21:36:39;;;;;;;9.68;8.68;;;;;;;5.65;100.00;94228.19;2594869;22;20003;-79
2021/09/21 21:37:39;;;;;;;9.82;8.82;;;;;;;5.54;100.00;94233.34;2581067;23;20040;-80
2021/09/21 21:38:40;;;;;;;14.18;9.57;;;;;;;5.61;100.00;94230.00;2581718;22;20185;-76
2021/09/21 21:39:41;;;;;;;12.48;9.43;;;;;;;5.48;100.00;94220.72;2581465;23;20412;-78
2021/09/21 21:40:42;;;;;;;11.55;9.35;;;;;;;5.54;100.00;94219.31;2568907;22;20010;-78
2021/09/21 21:41:43;;;;;;;10.60;9.50;;;;;;;5.49;100.00;94227.56;2581168;23;20054;-77
2021/09/21 21:42:44;;;;;;;10.20;9.20;;;;;;;5.55;100.00;94223.50;2581356;22;20004;-77
2021/09/21 21:43:45;;;;;;;10.38;9.27;;;;;;;5.66;100.00;94219.09;2581730;23;20012;-80
2021/09/21 21:44:46;;;;;;;13.07;9.07;;;;;;;5.50;100.00;94218.50;2569138;23;20015;-77
2021/09/21 21:45:47;;;;;;;10.60;8.90;;;;;;;5.58;100.00;94225.44;2594191;22;19999;-78
2021/09/21 21:46:49;;;;;;;11.98;9.50;;;;;;;5.58;100.00;94216.72;2581360;23;20000;-77
2021/09/21 21:47:50;;;;;;;10.93;9.18;;;;;;;5.60;100.00;94222.41;2581419;22;20058;-76
2021/09/21 21:48:50;;;;;;;12.57;9.18;;;;;;;5.59;100.00;94219.00;2594649;22;20778;-75
2021/09/21 21:49:53;;;;;;;12.93;9.05;;;;;;;5.47;100.00;94217.31;2593980;22;20078;-78
2021/09/21 21:50:53;;;;;;;10.13;8.50;;;;;;;5.38;100.00;94222.09;2593786;22;20430;-78
2021/09/21 21:51:55;;;;;;;10.13;9.05;;;;;;;5.55;100.00;94218.94;2594631;22;20000;-77
2021/09/21 21:52:56;;;;;;;12.98;8.60;;;;;;;5.51;100.00;94212.81;2593861;22;20006;-75
2021/09/21 21:53:57;;;;;;;15.30;9.13;;;;;;;5.51;100.00;94215.47;2595002;22;20397;-77
2021/09/21 21:54:57;;;;;;;9.63;8.63;;;;;;;5.55;100.00;94212.88;2596493;22;20003;-77
2021/09/21 21:55:58;;;;;;;11.13;8.52;;;;;;;5.39;100.00;94209.59;2582642;22;20071;-78
2021/09/21 21:56:59;;;;;;;10.05;8.35;;;;;;;5.36;100.00;94213.75;2581355;23;20010;-80
2021/09/21 21:58:00;;;;;;;11.95;8.38;;;;;;;5.33;100.00;94209.13;2568864;23;20498;-77
2021/09/21 21:59:01;;;;;;;10.45;7.85;;;;;;;5.28;100.00;94212.09;2594517;22;20406;-83
2021/09/21 22:00:29;;;;;;;9.10;8.20;;;;;;;5.35;100.00;94214.84;2593880;22;20007;-77
2021/09/21 22:01:31;;;;;;;9.30;8.30;;;;;;;5.39;100.00;94204.28;2586601;22;20010;-79
2021/09/21 22:02:32;;;;;;;10.02;8.95;;;;;;;5.42;100.00;94201.69;2568442;23;20055;-77
2021/09/21 22:03:33;;;;;;;10.15;8.52;;;;;;;5.51;100.00;94207.53;2581536;22;20000;-80
2021/09/21 22:04:34;;;;;;;9.75;8.75;;;;;;;5.49;100.00;94201.81;2581499;22;20012;-78
2021/09/21 22:05:36;;;;;;;11.15;9.27;;;;;;;5.43;100.00;94199.81;2594266;22;20378;-79
2021/09/21 22:06:37;;;;;;;8.93;8.02;;;;;;;5.44;100.00;94202.09;2595078;22;19995;-77
2021/09/21 22:07:38;;;;;;;10.40;8.48;;;;;;;5.36;100.00;94197.84;2593807;22;20004;-78
2021/09/21 22:08:39;;;;;;;9.45;8.32;;;;;;;5.21;100.00;94202.13;2581723;22;20447;-79